Nixville, South Carolina
Current Conditions -  °F | °C
As of 11:55 PM on Friday 24 Oct 2014 (Local Time) from KJYL Reporting Station
Clear Clear  
Wind Chill: 55°   Ceiling: Unl
Heat Index: 55°   Visibility: 10mi
Dew Point: 53°   Wind: 0mph
Humidity: 95%   Direction: NA
Pressure: 30.03"   Gusts: NA
Location:  32.7105°N, 81.239°W
Report Text: KJYL 250355Z AUTO 00000KT 10SM CLR 13/12 A3003 RMK AO2 T01270119
Loading
Personal Weather Stations






























Interactive Weather Map
Tropical Storm Tracking
New forecast layout! Learn more

10-Day Weather Forecast

Advertisements
Track Severe Weather on mobile